createdAt,value
2023-02-19T00:00:22.324Z,0.109
2023-02-19T00:01:20.808Z,0.109
2023-02-19T00:02:20.886Z,0.109
2023-02-19T00:03:21.180Z,0.219
2023-02-19T00:04:20.974Z,0.340
2023-02-19T00:05:20.693Z,0.109
2023-02-19T00:06:20.431Z,0.219
2023-02-19T00:07:20.256Z,0.340
2023-02-19T00:08:20.908Z,0.219
2023-02-19T00:09:20.474Z,0.109
2023-02-19T00:10:20.976Z,0.109
2023-02-19T00:11:20.451Z,0.219
2023-02-19T00:12:21.523Z,0
2023-02-19T00:13:20.745Z,0.219
2023-02-19T00:14:20.132Z,0
2023-02-19T00:15:20.694Z,0
2023-02-19T00:16:20.667Z,0
2023-02-19T00:17:20.500Z,0
2023-02-19T00:18:20.524Z,0
2023-02-19T00:19:20.277Z,0
2023-02-19T00:20:20.244Z,0
2023-02-19T00:21:21.752Z,0
2023-02-19T00:22:20.192Z,0
2023-02-19T00:23:20.925Z,0
2023-02-19T00:24:20.076Z,0
2023-02-19T00:25:20.756Z,0
2023-02-19T00:26:22.253Z,0
2023-02-19T00:27:20.549Z,0
2023-02-19T00:28:18.397Z,0
2023-02-19T00:29:20.713Z,0.219
2023-02-19T00:30:21.075Z,0
2023-02-19T00:31:20.676Z,0
2023-02-19T00:32:21.321Z,0
2023-02-19T00:33:20.806Z,0.219
2023-02-19T00:34:20.661Z,0
2023-02-19T00:35:20.315Z,0.109
2023-02-19T00:36:20.457Z,0
2023-02-19T00:37:21.142Z,0
2023-02-19T00:38:20.433Z,0
2023-02-19T00:39:20.977Z,0
2023-02-19T00:40:20.606Z,0.219
2023-02-19T00:41:19.861Z,0
2023-02-19T00:42:20.773Z,0
2023-02-19T00:43:20.717Z,0
2023-02-19T00:44:20.189Z,0.340
2023-02-19T00:45:21.371Z,0
2023-02-19T00:46:21.147Z,0
2023-02-19T00:47:20.424Z,0
2023-02-19T00:48:21.143Z,0
2023-02-19T00:49:20.471Z,0.109
2023-02-19T00:50:21.240Z,0.219
2023-02-19T00:51:20.669Z,0
2023-02-19T00:52:20.429Z,0.219
2023-02-19T00:53:21.089Z,0.219
2023-02-19T00:54:20.436Z,0.119
2023-02-19T00:55:20.356Z,0.219
2023-02-19T00:56:20.581Z,0
2023-02-19T00:57:20.505Z,0
2023-02-19T00:58:21.017Z,0.109
2023-02-19T00:59:20.809Z,0
2023-02-19T01:00:40.858Z,0
2023-02-19T01:01:23.967Z,0
2023-02-19T01:03:20.920Z,0
2023-02-19T01:04:20.400Z,0
2023-02-19T01:05:20.323Z,0.109
2023-02-19T01:06:21.532Z,0
2023-02-19T01:07:20.612Z,0
2023-02-19T01:08:20.025Z,0
2023-02-19T01:09:20.492Z,0
2023-02-19T01:10:21.564Z,0.109
2023-02-19T01:11:20.335Z,0
2023-02-19T01:12:21.349Z,0.109
2023-02-19T01:13:20.441Z,0
2023-02-19T01:14:19.395Z,0
2023-02-19T01:15:19.879Z,0
2023-02-19T01:16:21.506Z,0.109
2023-02-19T01:17:20.420Z,0
2023-02-19T01:18:21.063Z,0.109
2023-02-19T01:19:20.382Z,0
2023-02-19T01:20:20.894Z,0.109
2023-02-19T01:21:20.615Z,0.109
2023-02-19T01:22:20.962Z,0
2023-02-19T01:23:20.673Z,0
2023-02-19T01:24:20.622Z,0
2023-02-19T01:25:20.452Z,0
2023-02-19T01:26:20.725Z,0
2023-02-19T01:27:20.766Z,0.109
2023-02-19T01:28:20.043Z,0
2023-02-19T01:29:20.316Z,0
2023-02-19T01:30:21.022Z,0
2023-02-19T01:31:20.519Z,0
2023-02-19T01:32:20.965Z,0
2023-02-19T01:33:20.525Z,0
2023-02-19T01:34:20.431Z,0
2023-02-19T01:35:21.046Z,0
2023-02-19T01:36:20.392Z,0
2023-02-19T01:37:20.775Z,0.109
2023-02-19T01:38:20.103Z,0
2023-02-19T01:39:20.726Z,0.109
2023-02-19T01:40:20.949Z,0
2023-02-19T01:41:20.734Z,0
2023-02-19T01:42:20.344Z,0
2023-02-19T01:43:20.391Z,0
2023-02-19T01:44:20.467Z,0.109
2023-02-19T01:45:21.921Z,0
2023-02-19T01:46:20.645Z,0
2023-02-19T01:47:19.863Z,0
2023-02-19T01:48:20.422Z,0
2023-02-19T01:49:20.126Z,0
2023-02-19T01:50:21.122Z,0
2023-02-19T01:51:20.275Z,0
2023-02-19T01:52:20.616Z,0
2023-02-19T01:53:20.504Z,0
2023-02-19T01:54:20.747Z,0
2023-02-19T01:55:20.258Z,0
2023-02-19T01:56:20.218Z,0
2023-02-19T01:57:20.730Z,0.109
2023-02-19T01:58:21.093Z,0
2023-02-19T01:59:20.832Z,0
2023-02-19T02:00:22.157Z,0
2023-02-19T02:01:21.185Z,0
2023-02-19T02:02:20.867Z,0
2023-02-19T02:03:21.336Z,0.109
2023-02-19T02:04:20.965Z,0.109
2023-02-19T02:05:20.370Z,0
2023-02-19T02:06:20.895Z,0
2023-02-19T02:07:21.164Z,0
2023-02-19T02:08:20.927Z,0.100
2023-02-19T02:09:20.955Z,0
2023-02-19T02:10:20.925Z,0
2023-02-19T02:11:20.546Z,0
2023-02-19T02:12:20.144Z,0
2023-02-19T02:13:20.977Z,0
2023-02-19T02:14:20.807Z,0
2023-02-19T02:15:21.129Z,0
2023-02-19T02:16:20.935Z,0
2023-02-19T02:17:20.240Z,0
2023-02-19T02:18:20.431Z,0
2023-02-19T02:19:20.549Z,0
2023-02-19T02:20:20.742Z,0
2023-02-19T02:21:20.178Z,0
2023-02-19T02:22:20.401Z,0
2023-02-19T02:23:20.278Z,0
2023-02-19T02:24:20.528Z,0
2023-02-19T02:25:21.333Z,0
2023-02-19T02:26:21.027Z,0
2023-02-19T02:27:20.822Z,0
2023-02-19T02:28:20.216Z,0
2023-02-19T02:29:20.543Z,0
2023-02-19T02:30:21.259Z,0
2023-02-19T02:31:21.385Z,0
2023-02-19T02:32:21.026Z,0.109
2023-02-19T02:33:21.072Z,0.109
2023-02-19T02:34:20.607Z,0
2023-02-19T02:35:21.102Z,0
2023-02-19T02:36:20.414Z,0.109
2023-02-19T02:37:20.581Z,0
2023-02-19T02:38:20.344Z,0
2023-02-19T02:39:20.768Z,0
2023-02-19T02:40:20.758Z,0
2023-02-19T02:41:21.131Z,0
2023-02-19T02:42:21.470Z,0
2023-02-19T02:43:20.173Z,0
2023-02-19T02:44:20.365Z,0
2023-02-19T02:45:21.382Z,0
2023-02-19T02:46:20.429Z,0
2023-02-19T02:47:21.201Z,0
2023-02-19T02:48:20.858Z,0
2023-02-19T02:49:20.479Z,0
2023-02-19T02:50:21.458Z,0
2023-02-19T02:51:20.996Z,0
2023-02-19T02:52:19.902Z,0
2023-02-19T02:53:21.130Z,0
2023-02-19T02:54:20.441Z,0
2023-02-19T02:55:21.026Z,0
2023-02-19T02:56:20.406Z,0.109
2023-02-19T02:57:20.634Z,0.109
2023-02-19T02:58:21.184Z,0
2023-02-19T02:59:21.475Z,0
2023-02-19T03:00:22.406Z,0
2023-02-19T03:01:21.060Z,0
2023-02-19T03:02:20.347Z,0.109
2023-02-19T03:03:20.659Z,0
2023-02-19T03:04:21.057Z,0
2023-02-19T03:05:20.826Z,0.109
2023-02-19T03:06:21.613Z,0.109
2023-02-19T03:07:21.297Z,0
2023-02-19T03:08:20.696Z,0.109
2023-02-19T03:09:19.919Z,0.109
2023-02-19T03:10:21.002Z,0
2023-02-19T03:11:20.323Z,0
2023-02-19T03:12:20.223Z,0.109
2023-02-19T03:13:20.464Z,0
2023-02-19T03:14:20.750Z,0
2023-02-19T03:15:20.658Z,0
2023-02-19T03:16:20.466Z,0.109
2023-02-19T03:17:21.089Z,0.109
2023-02-19T03:18:20.575Z,0
2023-02-19T03:19:20.756Z,0
2023-02-19T03:20:20.982Z,0
2023-02-19T03:21:20.923Z,0
2023-02-19T03:22:20.610Z,0
2023-02-19T03:23:21.411Z,0
2023-02-19T03:24:20.874Z,0
2023-02-19T03:25:20.816Z,0
2023-02-19T03:26:20.559Z,0
2023-02-19T03:27:21.255Z,0
2023-02-19T03:28:21.170Z,0
2023-02-19T03:29:20.642Z,0.109
2023-02-19T03:30:21.438Z,0
2023-02-19T03:31:20.964Z,0
2023-02-19T03:32:20.851Z,0
2023-02-19T03:33:20.213Z,0
2023-02-19T03:34:20.621Z,0.100
2023-02-19T03:35:21.331Z,0
2023-02-19T03:36:21.026Z,0
2023-02-19T03:37:20.947Z,0.109
2023-02-19T03:38:20.669Z,0
2023-02-19T03:39:20.982Z,0
2023-02-19T03:40:20.546Z,0
2023-02-19T03:41:21.289Z,0
2023-02-19T03:42:20.795Z,0.109
2023-02-19T03:43:20.583Z,0
2023-02-19T03:44:21.180Z,0
2023-02-19T03:45:21.586Z,0
2023-02-19T03:46:21.304Z,0
2023-02-19T03:47:20.586Z,0
2023-02-19T03:48:20.994Z,0
2023-02-19T03:49:20.884Z,0
2023-02-19T03:50:20.438Z,0.109
2023-02-19T03:51:20.621Z,0
2023-02-19T03:52:20.002Z,0
2023-02-19T03:53:20.996Z,0
2023-02-19T03:54:21.289Z,0
2023-02-19T03:55:21.177Z,0
2023-02-19T03:56:21.255Z,0.109
2023-02-19T03:57:21.274Z,0
2023-02-19T03:58:20.895Z,0.109
2023-02-19T03:59:20.470Z,0
2023-02-19T04:00:22.507Z,0
2023-02-19T04:01:21.487Z,0.109
2023-02-19T04:02:21.452Z,0.219
2023-02-19T04:03:21.318Z,0
2023-02-19T04:04:21.540Z,0.109
2023-02-19T04:05:21.334Z,0
2023-02-19T04:06:20.879Z,0
2023-02-19T04:07:20.469Z,0
2023-02-19T04:08:20.477Z,0.109
2023-02-19T04:09:20.866Z,0
2023-02-19T04:10:20.647Z,0
2023-02-19T04:11:20.924Z,0.109
2023-02-19T04:12:20.308Z,0
2023-02-19T04:13:20.278Z,0
2023-02-19T04:14:20.610Z,0
2023-02-19T04:15:21.321Z,0.109
2023-02-19T04:16:20.990Z,0
2023-02-19T04:17:21.038Z,0.109
2023-02-19T04:18:21.188Z,0.219
2023-02-19T04:19:20.662Z,0.109
2023-02-19T04:20:21.215Z,0
2023-02-19T04:21:20.425Z,0
2023-02-19T04:22:21.134Z,0
2023-02-19T04:23:21.300Z,0
2023-02-19T04:24:20.951Z,0
2023-02-19T04:25:21.119Z,0
2023-02-19T04:26:20.652Z,0
2023-02-19T04:27:21.252Z,0
2023-02-19T04:28:20.044Z,0.109
2023-02-19T04:29:20.693Z,0.109
2023-02-19T04:30:21.707Z,0
2023-02-19T04:31:20.884Z,0
2023-02-19T04:32:20.437Z,0
2023-02-19T04:33:20.391Z,0
2023-02-19T04:34:20.842Z,0.109
2023-02-19T04:35:19.948Z,0
2023-02-19T04:36:20.840Z,0
2023-02-19T04:37:20.332Z,0
2023-02-19T04:38:21.280Z,0
2023-02-19T04:39:20.836Z,0
2023-02-19T04:40:21.604Z,0.109
2023-02-19T04:41:20.326Z,0
2023-02-19T04:42:20.357Z,0
2023-02-19T04:43:21.219Z,0
2023-02-19T04:44:20.303Z,0
2023-02-19T04:45:21.179Z,0.109
2023-02-19T04:46:21.143Z,0
2023-02-19T04:47:20.929Z,0
2023-02-19T04:48:21.075Z,0
2023-02-19T04:49:20.771Z,0
2023-02-19T04:50:21.597Z,0
2023-02-19T04:51:20.832Z,0
2023-02-19T04:52:20.533Z,0
2023-02-19T04:53:20.617Z,0
2023-02-19T04:54:20.957Z,0
2023-02-19T04:55:21.284Z,0
2023-02-19T04:56:21.188Z,0
2023-02-19T04:57:20.238Z,0
2023-02-19T04:58:20.651Z,0
2023-02-19T04:59:20.489Z,0
2023-02-19T05:00:21.779Z,0
2023-02-19T05:01:20.539Z,0
2023-02-19T05:02:20.370Z,0
2023-02-19T05:03:21.009Z,0.109
2023-02-19T05:04:20.509Z,0
2023-02-19T05:05:21.088Z,0
2023-02-19T05:06:20.416Z,0
2023-02-19T05:07:21.316Z,0
2023-02-19T05:08:20.661Z,0
2023-02-19T05:09:20.712Z,0.109
2023-02-19T05:10:20.571Z,0
2023-02-19T05:11:20.289Z,0
2023-02-19T05:12:20.855Z,0
2023-02-19T05:13:20.987Z,0
2023-02-19T05:14:20.660Z,0
2023-02-19T05:15:21.117Z,0
2023-02-19T05:16:20.226Z,0
2023-02-19T05:17:20.705Z,0
2023-02-19T05:18:20.459Z,0
2023-02-19T05:19:20.717Z,0
2023-02-19T05:20:20.615Z,0
2023-02-19T05:21:20.003Z,0
2023-02-19T05:22:20.500Z,0.109
2023-02-19T05:23:20.179Z,0
2023-02-19T05:24:20.461Z,0
2023-02-19T05:25:21.018Z,0
2023-02-19T05:26:20.292Z,0.109
2023-02-19T05:27:20.815Z,0
2023-02-19T05:28:20.154Z,0
2023-02-19T05:29:20.485Z,0
2023-02-19T05:30:20.957Z,0
2023-02-19T05:31:20.811Z,0
2023-02-19T05:32:20.558Z,0
2023-02-19T05:33:21.117Z,0
2023-02-19T05:34:21.015Z,0
2023-02-19T05:35:20.285Z,0
2023-02-19T05:36:20.548Z,0
2023-02-19T05:37:20.348Z,0
2023-02-19T05:38:20.574Z,0.109
2023-02-19T05:39:20.988Z,0
2023-02-19T05:40:21.038Z,0.109
2023-02-19T05:41:20.402Z,0
2023-02-19T05:42:20.983Z,0
2023-02-19T05:43:19.982Z,0
2023-02-19T05:44:20.157Z,0
2023-02-19T05:45:21.421Z,0
2023-02-19T05:46:20.455Z,0
2023-02-19T05:47:20.827Z,0
2023-02-19T05:48:20.452Z,0
2023-02-19T05:49:20.004Z,0
2023-02-19T05:50:20.798Z,0
2023-02-19T05:51:20.802Z,0
2023-02-19T05:52:39.647Z,0
2023-02-19T05:53:20.844Z,0
2023-02-19T05:54:20.655Z,0
2023-02-19T05:55:20.457Z,0
2023-02-19T05:56:21.101Z,0
2023-02-19T05:57:21.245Z,0
2023-02-19T05:58:21.143Z,0
2023-02-19T05:59:20.656Z,0
2023-02-19T06:00:22.602Z,0
2023-02-19T06:01:21.038Z,0
2023-02-19T06:02:42.509Z,13600
2023-02-19T06:03:21.102Z,0
2023-02-19T06:04:20.729Z,13600
2023-02-19T06:05:20.609Z,13600
2023-02-19T06:06:20.606Z,13600
2023-02-19T06:07:20.603Z,13600
2023-02-19T06:08:20.392Z,13600
2023-02-19T06:09:20.902Z,13600
2023-02-19T06:10:20.897Z,13600
2023-02-19T06:11:20.608Z,13600
2023-02-19T06:13:20.881Z,0
2023-02-19T06:14:21.750Z,0
2023-02-19T06:15:21.540Z,0.620
2023-02-19T06:16:20.403Z,0.560
2023-02-19T06:17:21.115Z,0.600
2023-02-19T06:18:21.118Z,1.629
2023-02-19T06:19:20.638Z,1.669
2023-02-19T06:20:21.072Z,2.829
2023-02-19T06:21:20.579Z,3.609
2023-02-19T06:22:21.072Z,4.460
2023-02-19T06:23:20.947Z,5.530
2023-02-19T06:24:20.766Z,6.449
2023-02-19T06:25:21.192Z,7.679
2023-02-19T06:26:20.865Z,8.829
2023-02-19T06:27:20.330Z,8.319
2023-02-19T06:28:20.712Z,9.510
2023-02-19T06:29:20.616Z,10.69
2023-02-19T06:30:20.649Z,14
2023-02-19T06:31:20.750Z,17.39
2023-02-19T06:32:21.209Z,18.38
2023-02-19T06:33:20.797Z,19.10
2023-02-19T06:34:20.538Z,22.20
2023-02-19T06:35:20.592Z,29
2023-02-19T06:36:21.556Z,37.40
2023-02-19T06:37:20.843Z,45.70
2023-02-19T06:38:21.375Z,51.29
2023-02-19T06:39:21.015Z,58.20
2023-02-19T06:40:21.570Z,65.40
2023-02-19T06:41:21.123Z,72.40
2023-02-19T06:42:20.538Z,78.5
2023-02-19T06:43:21.559Z,79.90
2023-02-19T06:44:20.592Z,76.5
2023-02-19T06:45:21.496Z,87
2023-02-19T06:46:21.583Z,104
2023-02-19T06:47:20.861Z,116.1
2023-02-19T06:48:20.985Z,125.5
2023-02-19T06:49:21.406Z,131.1
2023-02-19T06:50:21.708Z,150
2023-02-19T06:51:20.657Z,174
2023-02-19T06:52:21.102Z,193
2023-02-19T06:53:20.559Z,209
2023-02-19T06:54:20.386Z,216
2023-02-19T06:55:20.365Z,220
2023-02-19T06:56:20.419Z,226.4
2023-02-19T06:57:20.290Z,219
2023-02-19T06:58:21.442Z,204
2023-02-19T06:59:20.494Z,186
2023-02-19T07:00:22.535Z,190
2023-02-19T07:01:21.576Z,240
2023-02-19T07:02:20.667Z,289
2023-02-19T07:03:21.108Z,314
2023-02-19T07:04:20.762Z,326.2
2023-02-19T07:05:22.040Z,332.1
2023-02-19T07:06:21.689Z,336.3
2023-02-19T07:07:21.294Z,343.8
2023-02-19T07:08:22.777Z,343.7
2023-02-19T07:09:22.226Z,333
2023-02-19T07:10:23.142Z,325
2023-02-19T07:11:21.345Z,316.2
2023-02-19T07:12:21.173Z,323
2023-02-19T07:13:21.333Z,350
2023-02-19T07:14:21.378Z,388
2023-02-19T07:15:20.832Z,380.2
2023-02-19T07:16:22.217Z,390
2023-02-19T07:17:20.983Z,440
2023-02-19T07:18:21.387Z,480
2023-02-19T07:19:20.827Z,520
2023-02-19T07:20:21.142Z,570
2023-02-19T07:21:21.675Z,612
2023-02-19T07:22:20.571Z,619.5
2023-02-19T07:23:20.759Z,617.8
2023-02-19T07:24:21.275Z,610
2023-02-19T07:25:21.287Z,586
2023-02-19T07:26:20.753Z,540
2023-02-19T07:27:21.301Z,500
2023-02-19T07:28:21.090Z,480
2023-02-19T07:29:21.165Z,580
2023-02-19T07:30:22.226Z,650
2023-02-19T07:31:21.681Z,670
2023-02-19T07:32:21.747Z,699
2023-02-19T07:33:21.461Z,687
2023-02-19T07:34:21.471Z,630
2023-02-19T07:35:20.751Z,590
2023-02-19T07:36:21.604Z,630
2023-02-19T07:37:21.600Z,540
2023-02-19T07:38:21.493Z,546
2023-02-19T07:39:21.532Z,580
2023-02-19T07:40:21.784Z,583
2023-02-19T07:41:21.178Z,630
2023-02-19T07:42:21.469Z,620
2023-02-19T07:43:21.645Z,500
2023-02-19T07:44:21.476Z,475
2023-02-19T07:45:21.907Z,482
2023-02-19T07:46:21.454Z,500
2023-02-19T07:47:21.629Z,570
2023-02-19T07:48:21.563Z,600
2023-02-19T07:49:21.258Z,500
2023-02-19T07:50:21.569Z,524
2023-02-19T07:51:26.310Z,537
2023-02-19T07:52:21.280Z,526
2023-02-19T07:53:21.383Z,540
2023-02-19T07:54:21.033Z,600
2023-02-19T07:55:21.802Z,750
2023-02-19T07:56:21.398Z,740
2023-02-19T07:57:21.583Z,789
2023-02-19T07:58:20.619Z,756
2023-02-19T07:59:20.677Z,790
2023-02-19T08:00:22.793Z,900
2023-02-19T08:01:22.122Z,900
2023-02-19T08:02:21.799Z,900
2023-02-19T08:03:21.566Z,900
2023-02-19T08:04:21.695Z,760
2023-02-19T08:05:21.965Z,757
2023-02-19T08:06:21.823Z,787
2023-02-19T08:07:22.043Z,800
2023-02-19T08:08:21.566Z,800
2023-02-19T08:09:21.455Z,990
2023-02-19T08:10:21.419Z,1038
2023-02-19T08:11:21.248Z,1045.
2023-02-19T08:12:21.100Z,1051
2023-02-19T08:13:21.095Z,1070
2023-02-19T08:14:20.746Z,1100
2023-02-19T08:15:22.477Z,1300
2023-02-19T08:16:33.182Z,1400
2023-02-19T08:17:21.834Z,1500
2023-02-19T08:18:22.241Z,1560.
2023-02-19T08:19:21.098Z,1590
2023-02-19T08:20:21.958Z,1690
2023-02-19T08:21:21.586Z,1730
2023-02-19T08:22:21.358Z,1765
2023-02-19T08:23:21.821Z,1790
2023-02-19T08:24:21.448Z,1800
2023-02-19T08:25:21.370Z,1740
2023-02-19T08:26:20.985Z,1600
2023-02-19T08:27:21.445Z,1610
2023-02-19T08:28:21.367Z,1720
2023-02-19T08:29:20.908Z,1780
2023-02-19T08:30:22.275Z,1600
2023-02-19T08:31:21.480Z,1300
2023-02-19T08:32:21.377Z,1400
2023-02-19T08:33:20.350Z,1500
2023-02-19T08:34:20.751Z,1630
2023-02-19T08:35:21.489Z,1574
2023-02-19T08:36:21.169Z,1630
2023-02-19T08:37:21.525Z,1500
2023-02-19T08:38:21.118Z,1492
2023-02-19T08:39:21.937Z,1500
2023-02-19T08:40:22.300Z,1700
2023-02-19T08:41:20.956Z,1770
2023-02-19T08:42:21.340Z,1725
2023-02-19T08:43:21.629Z,1680
2023-02-19T08:44:21.512Z,1610
2023-02-19T08:45:22.499Z,1560
2023-02-19T08:46:21.829Z,1570
2023-02-19T08:47:21.552Z,1608
2023-02-19T08:48:21.678Z,1597
2023-02-19T08:49:21.298Z,1610
2023-02-19T08:50:21.565Z,1622.
2023-02-19T08:51:21.134Z,1609
2023-02-19T08:52:20.887Z,1592
2023-02-19T08:53:21.174Z,1540
2023-02-19T08:54:21.269Z,1480
2023-02-19T08:55:21.382Z,1440
2023-02-19T08:56:21.794Z,1426.
2023-02-19T08:57:21.120Z,1426.
2023-02-19T08:58:21.967Z,1460
2023-02-19T08:59:21.924Z,1540
2023-02-19T09:00:22.832Z,1650
2023-02-19T09:01:22.079Z,1700
2023-02-19T09:02:21.237Z,1880
2023-02-19T09:03:21.903Z,1950
2023-02-19T09:04:21.425Z,1960
2023-02-19T09:05:21.906Z,1800
2023-02-19T09:06:21.631Z,1700
2023-02-19T09:07:21.671Z,1610
2023-02-19T09:08:21.757Z,1560
2023-02-19T09:09:21.837Z,1520
2023-02-19T09:10:22.378Z,1480
2023-02-19T09:11:20.971Z,1430
2023-02-19T09:12:21.553Z,1416.
2023-02-19T09:13:21.287Z,1423
2023-02-19T09:14:21.204Z,1410
2023-02-19T09:15:21.711Z,1360
2023-02-19T09:16:21.645Z,1310
2023-02-19T09:17:22.081Z,1250
2023-02-19T09:18:21.293Z,1180
2023-02-19T09:19:21.256Z,1110
2023-02-19T09:20:21.896Z,1000
2023-02-19T09:21:21.158Z,982.2
2023-02-19T09:22:21.157Z,1010
2023-02-19T09:23:21.080Z,1100
2023-02-19T09:24:21.029Z,1200
2023-02-19T09:25:21.391Z,1363
2023-02-19T09:26:21.789Z,1338
2023-02-19T09:27:21.473Z,1380
2023-02-19T09:28:22.198Z,1300
2023-02-19T09:29:21.524Z,1200
2023-02-19T09:30:21.960Z,1500
2023-02-19T09:31:21.948Z,1800
2023-02-19T09:32:21.725Z,2100
2023-02-19T09:33:21.916Z,2300
2023-02-19T09:34:22.332Z,2000
2023-02-19T09:35:22.110Z,2900
2023-02-19T09:36:21.402Z,3000
2023-02-19T09:37:21.594Z,3700
2023-02-19T09:38:22.058Z,3600
2023-02-19T09:39:21.639Z,3500
2023-02-19T09:40:21.947Z,3500
2023-02-19T09:41:22.235Z,0
2023-02-19T09:42:20.996Z,2600
2023-02-19T09:43:22.338Z,2800
2023-02-19T09:44:21.658Z,3000
2023-02-19T09:45:22.382Z,3300
2023-02-19T09:46:21.214Z,3590
2023-02-19T09:47:21.080Z,3000
2023-02-19T09:48:21.200Z,0
2023-02-19T09:49:21.828Z,0
2023-02-19T09:50:21.337Z,0
2023-02-19T09:51:21.620Z,0
2023-02-19T09:52:21.473Z,5000
2023-02-19T09:53:22.117Z,4000
2023-02-19T09:54:21.959Z,4000
2023-02-19T09:55:22.022Z,3000
2023-02-19T09:56:21.842Z,3200
2023-02-19T09:57:21.525Z,3000
2023-02-19T09:58:21.326Z,3000
2023-02-19T09:59:21.349Z,3830
2023-02-19T10:00:22.437Z,3800
2023-02-19T10:01:21.682Z,4000
2023-02-19T10:02:21.839Z,4000
2023-02-19T10:03:21.311Z,3800
2023-02-19T10:04:21.778Z,4000
2023-02-19T10:05:21.452Z,4700
2023-02-19T10:06:21.944Z,4600
2023-02-19T10:07:21.505Z,4000
2023-02-19T10:08:22.470Z,5000
2023-02-19T10:09:21.839Z,4800
2023-02-19T10:10:21.116Z,4700
2023-02-19T10:11:21.516Z,4000
2023-02-19T10:12:21.796Z,3000
2023-02-19T10:13:21.317Z,3200
2023-02-19T10:14:21.868Z,3200
2023-02-19T10:15:22.337Z,3000
2023-02-19T10:16:22.479Z,4000
2023-02-19T10:17:21.142Z,4400
2023-02-19T10:18:21.486Z,4400
2023-02-19T10:19:21.454Z,4000
2023-02-19T10:20:22.332Z,3000
2023-02-19T10:21:22.051Z,2790
2023-02-19T10:22:22.029Z,2000
2023-02-19T10:23:22.028Z,1000
2023-02-19T10:24:21.942Z,1000
2023-02-19T10:25:21.927Z,2000
2023-02-19T10:26:21.688Z,3000
2023-02-19T10:27:21.516Z,3000
2023-02-19T10:28:21.710Z,0
2023-02-19T10:29:21.938Z,5000
2023-02-19T10:30:22.013Z,5000
2023-02-19T10:31:22.002Z,0
2023-02-19T10:32:21.595Z,5510
2023-02-19T10:33:21.712Z,0
2023-02-19T10:34:22.284Z,0
2023-02-19T10:35:21.542Z,2000
2023-02-19T10:36:19.983Z,1900
2023-02-19T10:37:21.793Z,1900
2023-02-19T10:38:21.919Z,1900
2023-02-19T10:39:21.085Z,1000
2023-02-19T10:40:40.694Z,2000
2023-02-19T10:41:20.876Z,3000
2023-02-19T10:42:20.878Z,3000
2023-02-19T10:43:21.305Z,3000
2023-02-19T10:44:21.385Z,2000
2023-02-19T10:45:21.992Z,2000
2023-02-19T10:46:21.659Z,1700
2023-02-19T10:47:21.456Z,1700
2023-02-19T10:48:22.100Z,2000
2023-02-19T10:49:21.680Z,2000
2023-02-19T10:50:22.484Z,2800
2023-02-19T10:51:22.076Z,3000
2023-02-19T10:52:21.841Z,4000
2023-02-19T10:53:21.517Z,4340
2023-02-19T10:54:21.556Z,4000
2023-02-19T10:55:21.771Z,0
2023-02-19T10:56:21.611Z,2000
2023-02-19T10:57:21.608Z,0
2023-02-19T10:58:22.030Z,3000
2023-02-19T10:59:21.157Z,3800
2023-02-19T11:00:23.004Z,3000
2023-02-19T11:01:22.316Z,4200
2023-02-19T11:02:21.317Z,0
2023-02-19T11:03:22.325Z,5000
2023-02-19T11:04:21.673Z,0
2023-02-19T11:05:23.126Z,4000
2023-02-19T11:06:22.120Z,0
2023-02-19T11:07:23.003Z,0
2023-02-19T11:08:23.321Z,1000
2023-02-19T11:09:22.518Z,1100
2023-02-19T11:10:24.102Z,900
2023-02-19T11:11:22.726Z,900
2023-02-19T11:12:22.411Z,1010
2023-02-19T11:13:22.228Z,940
2023-02-19T11:14:21.290Z,1000
2023-02-19T11:15:21.726Z,1200
2023-02-19T11:16:21.828Z,1345
2023-02-19T11:17:21.930Z,1339
2023-02-19T11:18:22.172Z,1300
2023-02-19T11:19:21.473Z,1500
2023-02-19T11:20:21.695Z,1600
2023-02-19T11:21:21.929Z,1000
2023-02-19T11:22:21.664Z,1100
2023-02-19T11:23:22.146Z,1400
2023-02-19T11:24:21.682Z,1400
2023-02-19T11:25:22.432Z,1400
2023-02-19T11:26:21.448Z,1500
2023-02-19T11:27:21.913Z,1680
2023-02-19T11:28:22.239Z,1800
2023-02-19T11:29:21.563Z,1930
2023-02-19T11:30:23.197Z,1910
2023-02-19T11:31:22.114Z,1700
2023-02-19T11:32:22.274Z,1690
2023-02-19T11:33:21.809Z,1800
2023-02-19T11:34:22.122Z,2100
2023-02-19T11:35:21.673Z,2300
2023-02-19T11:36:21.705Z,2600
2023-02-19T11:37:22.046Z,2750
2023-02-19T11:38:22.287Z,2788
2023-02-19T11:39:21.654Z,2805
2023-02-19T11:40:21.956Z,2840
2023-02-19T11:41:21.292Z,2877
2023-02-19T11:42:21.909Z,2840
2023-02-19T11:43:22.240Z,2770
2023-02-19T11:44:21.752Z,2726
2023-02-19T11:45:22.959Z,2720
2023-02-19T11:46:21.951Z,2800
2023-02-19T11:47:21.438Z,2900
2023-02-19T11:48:22.031Z,2988
2023-02-19T11:49:20.892Z,2930
2023-02-19T11:50:21.536Z,2910
2023-02-19T11:51:21.576Z,3000
2023-02-19T11:52:21.626Z,3200
2023-02-19T11:53:21.088Z,3400
2023-02-19T11:54:21.559Z,3000
2023-02-19T11:55:21.978Z,4000
2023-02-19T11:56:21.979Z,4300
2023-02-19T11:57:22.413Z,4000
2023-02-19T11:58:21.788Z,0
2023-02-19T11:59:21.929Z,6400
2023-02-19T12:00:22.484Z,6000
2023-02-19T12:01:22.348Z,6050
2023-02-19T12:02:22.622Z,6200
2023-02-19T12:03:22.184Z,6000
2023-02-19T12:04:22.649Z,0
2023-02-19T12:05:22.812Z,5590
2023-02-19T12:06:22.508Z,5650
2023-02-19T12:07:23.133Z,5000
2023-02-19T12:08:22.284Z,0
2023-02-19T12:09:22.494Z,3000
2023-02-19T12:10:22.048Z,3100
2023-02-19T12:11:21.751Z,3080
2023-02-19T12:12:21.921Z,3100
2023-02-19T12:13:22.061Z,3100
2023-02-19T12:14:21.097Z,2000
2023-02-19T12:15:22.584Z,2400
2023-02-19T12:16:22.160Z,2000
2023-02-19T12:17:21.728Z,1960
2023-02-19T12:18:21.552Z,1800
2023-02-19T12:19:22.019Z,1000
2023-02-19T12:20:22.235Z,1000
2023-02-19T12:21:21.992Z,1020
2023-02-19T12:22:22.038Z,1100
2023-02-19T12:23:22.584Z,1240
2023-02-19T12:24:22.980Z,1330
2023-02-19T12:25:22.124Z,1400
2023-02-19T12:26:22.282Z,1500
2023-02-19T12:27:22.029Z,1680
2023-02-19T12:28:21.576Z,1500
2023-02-19T12:29:21.852Z,1400
2023-02-19T12:30:22.669Z,1200
2023-02-19T12:31:21.772Z,1200
2023-02-19T12:32:21.313Z,1000
2023-02-19T12:33:22.325Z,1800
2023-02-19T12:34:21.501Z,1930
2023-02-19T12:35:23.092Z,2000
2023-02-19T12:36:21.360Z,2200
2023-02-19T12:37:21.848Z,2500
2023-02-19T12:38:21.777Z,2750
2023-02-19T12:39:22.085Z,2600
2023-02-19T12:40:21.998Z,2400
2023-02-19T12:41:22.077Z,2408
2023-02-19T12:42:22.100Z,2300
2023-02-19T12:43:21.390Z,2100
2023-02-19T12:44:21.693Z,1000
2023-02-19T12:45:21.845Z,1630
2023-02-19T12:46:22.207Z,1650
2023-02-19T12:47:22.191Z,1730
2023-02-19T12:48:22.157Z,1800
2023-02-19T12:49:30.163Z,2000
2023-02-19T12:50:22.392Z,2200
2023-02-19T12:51:21.977Z,2400
2023-02-19T12:52:22.200Z,2550
2023-02-19T12:53:21.974Z,2600
2023-02-19T12:54:22.077Z,2720
2023-02-19T12:55:21.721Z,2800
2023-02-19T12:56:22.344Z,2910
2023-02-19T12:57:22.063Z,2800
2023-02-19T12:58:22.241Z,2780
2023-02-19T12:59:21.631Z,2732
2023-02-19T13:00:23.744Z,2742
2023-02-19T13:01:36.445Z,2790
2023-02-19T13:02:22.457Z,2900
2023-02-19T13:03:22.101Z,3080
2023-02-19T13:04:22.083Z,2900
2023-02-19T13:05:36.162Z,2000
2023-02-19T13:06:22.324Z,2313
2023-02-19T13:07:22.121Z,2400
2023-02-19T13:08:22.088Z,2000
2023-02-19T13:09:21.203Z,3000
2023-02-19T13:10:21.322Z,3200
2023-02-19T13:11:21.961Z,3400
2023-02-19T13:12:21.959Z,3527.
2023-02-19T13:13:23.813Z,3490
2023-02-19T13:14:22.460Z,3450
2023-02-19T13:15:21.668Z,3500
2023-02-19T13:16:22.126Z,3000
2023-02-19T13:17:21.586Z,4000
2023-02-19T13:18:21.360Z,4200
2023-02-19T13:19:22.297Z,4000
2023-02-19T13:20:21.714Z,4700
2023-02-19T13:21:22.369Z,4880
2023-02-19T13:22:21.376Z,4000
2023-02-19T13:23:21.164Z,0
2023-02-19T13:24:21.359Z,3000
2023-02-19T13:25:22.222Z,3000
2023-02-19T13:26:21.868Z,3100
2023-02-19T13:27:22.006Z,2000
2023-02-19T13:28:21.186Z,2000
2023-02-19T13:29:22.153Z,2000
2023-02-19T13:30:21.692Z,1600
2023-02-19T13:31:21.828Z,1643
2023-02-19T13:32:21.494Z,1650
2023-02-19T13:33:21.620Z,1700
2023-02-19T13:34:22.157Z,1800
2023-02-19T13:35:21.905Z,1870
2023-02-19T13:36:22.343Z,1800
2023-02-19T13:37:22.269Z,2000
2023-02-19T13:38:21.888Z,2000
2023-02-19T13:39:19.412Z,2000
2023-02-19T13:40:22.420Z,3200
2023-02-19T13:41:21.740Z,3390
2023-02-19T13:42:21.617Z,3440
2023-02-19T13:43:21.509Z,3300
2023-02-19T13:44:21.694Z,3277
2023-02-19T13:45:21.980Z,3300
2023-02-19T13:46:21.749Z,3000
2023-02-19T13:47:21.352Z,3000
2023-02-19T13:48:22.301Z,2000